ZSMUI FXMU-FAGM
Flight info
| Callsign | ZSMUI |
|---|---|
| Flight time | 1h 3m |
| Altitude | 19000 |
| Route | EGSAN UZ4 TEVAR UZ2 NIBEX |
| Aircraft | C414/L-SBDFGRY/S |
Departure
| Time | 2026-04-23 14:20 |
|---|---|
| Airport | Mejametalana Air Base (FXMU) |
Arrival
| Time | 2026-04-23 15:23 |
|---|---|
| Airport | Rand Airport (FAGM) |
| Time | Latitude | Longitude | Altitude | Speed | Heading |
|---|---|---|---|---|---|
| 2026-04-23 14:15 | -29.30781 | 27.49935 | 5121 ft | 0 kts | 318° |
| 2026-04-23 14:17 | -29.30778 | 27.49933 | 5121 ft | 3 kts | 349° |
| 2026-04-23 14:17 | -29.30771 | 27.49957 | 5121 ft | 3 kts | 120° |
| 2026-04-23 14:18 | -29.30797 | 27.49989 | 5123 ft | 9 kts | 139° |
| 2026-04-23 14:18 | -29.30835 | 27.50032 | 5129 ft | 6 kts | 107° |
| 2026-04-23 14:18 | -29.30823 | 27.50050 | 5130 ft | 6 kts | 21° |
| 2026-04-23 14:18 | -29.30638 | 27.50132 | 5125 ft | 50 kts | 21° |
| 2026-04-23 14:19 | -29.30205 | 27.50324 | 5132 ft | 81 kts | 21° |
| 2026-04-23 14:19 | -29.29612 | 27.50584 | 5187 ft | 99 kts | 18° |
| 2026-04-23 14:19 | -29.28910 | 27.50738 | 5391 ft | 108 kts | 353° |
| 2026-04-23 14:19 | -29.28192 | 27.50430 | 5642 ft | 118 kts | 329° |
| 2026-04-23 14:20 | -29.27556 | 27.49822 | 6015 ft | 118 kts | 320° |
| 2026-04-23 14:20 | -29.26892 | 27.49276 | 6273 ft | 120 kts | 338° |
| 2026-04-23 14:20 | -29.26080 | 27.49012 | 6460 ft | 123 kts | 351° |
| 2026-04-23 14:20 | -29.25230 | 27.48833 | 6648 ft | 126 kts | 349° |
| 2026-04-23 14:21 | -29.24353 | 27.48613 | 6876 ft | 129 kts | 348° |
| 2026-04-23 14:21 | -29.23490 | 27.48385 | 7197 ft | 127 kts | 347° |
| 2026-04-23 14:21 | -29.22621 | 27.48148 | 7432 ft | 129 kts | 347° |
| 2026-04-23 14:21 | -29.21746 | 27.47902 | 7672 ft | 129 kts | 348° |
| 2026-04-23 14:22 | -29.20890 | 27.47666 | 7925 ft | 129 kts | 347° |
| 2026-04-23 14:22 | -29.20007 | 27.47420 | 8141 ft | 131 kts | 347° |
| 2026-04-23 14:22 | -29.19112 | 27.47168 | 8327 ft | 133 kts | 347° |
| 2026-04-23 14:22 | -29.18217 | 27.46916 | 8575 ft | 132 kts | 347° |
| 2026-04-23 14:23 | -29.17318 | 27.46667 | 8813 ft | 135 kts | 347° |
| 2026-04-23 14:23 | -29.16404 | 27.46411 | 9017 ft | 135 kts | 346° |
| 2026-04-23 14:23 | -29.15494 | 27.46154 | 9239 ft | 136 kts | 347° |
| 2026-04-23 14:23 | -29.14570 | 27.45899 | 9415 ft | 137 kts | 346° |
| 2026-04-23 14:24 | -29.13640 | 27.45637 | 9679 ft | 137 kts | 346° |
| 2026-04-23 14:24 | -29.12711 | 27.45377 | 9940 ft | 138 kts | 346° |
| 2026-04-23 14:24 | -29.11786 | 27.45120 | 10163 ft | 139 kts | 345° |
| 2026-04-23 14:24 | -29.10839 | 27.44856 | 10377 ft | 140 kts | 345° |
| 2026-04-23 14:25 | -29.09890 | 27.44591 | 10584 ft | 140 kts | 345° |
| 2026-04-23 14:25 | -29.08941 | 27.44327 | 10807 ft | 140 kts | 344° |
| 2026-04-23 14:25 | -29.07992 | 27.44061 | 11051 ft | 141 kts | 344° |
| 2026-04-23 14:25 | -29.07040 | 27.43795 | 11288 ft | 141 kts | 343° |
| 2026-04-23 14:26 | -29.06089 | 27.43530 | 11509 ft | 141 kts | 343° |
| 2026-04-23 14:26 | -29.05136 | 27.43263 | 11714 ft | 142 kts | 344° |
| 2026-04-23 14:26 | -29.04189 | 27.43002 | 11930 ft | 142 kts | 341° |
| 2026-04-23 14:26 | -29.03230 | 27.42733 | 12152 ft | 142 kts | 342° |
| 2026-04-23 14:27 | -29.02264 | 27.42463 | 12359 ft | 144 kts | 342° |
| 2026-04-23 14:27 | -29.01291 | 27.42192 | 12574 ft | 144 kts | 342° |
| 2026-04-23 14:27 | -29.00318 | 27.41921 | 12802 ft | 144 kts | 342° |
| 2026-04-23 14:27 | -28.99341 | 27.41650 | 13025 ft | 144 kts | 341° |
| 2026-04-23 14:28 | -28.98367 | 27.41378 | 13248 ft | 144 kts | 341° |
| 2026-04-23 14:28 | -28.97389 | 27.41105 | 13455 ft | 145 kts | 342° |
| 2026-04-23 14:28 | -28.96417 | 27.40834 | 13662 ft | 146 kts | 342° |
| 2026-04-23 14:28 | -28.95428 | 27.40559 | 13884 ft | 147 kts | 341° |
| 2026-04-23 14:29 | -28.94436 | 27.40284 | 14112 ft | 147 kts | 341° |
| 2026-04-23 14:29 | -28.93441 | 27.40006 | 14320 ft | 147 kts | 341° |
| 2026-04-23 14:29 | -28.92443 | 27.39729 | 14528 ft | 148 kts | 341° |
| 2026-04-23 14:29 | -28.91443 | 27.39451 | 14733 ft | 148 kts | 341° |
| 2026-04-23 14:30 | -28.90439 | 27.39171 | 14940 ft | 149 kts | 341° |
| 2026-04-23 14:30 | -28.89432 | 27.38891 | 15132 ft | 149 kts | 341° |
| 2026-04-23 14:30 | -28.88425 | 27.38612 | 15307 ft | 149 kts | 341° |
| 2026-04-23 14:30 | -28.87430 | 27.38334 | 15496 ft | 149 kts | 341° |
| 2026-04-23 14:31 | -28.86418 | 27.38054 | 15703 ft | 150 kts | 341° |
| 2026-04-23 14:31 | -28.85407 | 27.37773 | 15899 ft | 150 kts | 341° |
| 2026-04-23 14:31 | -28.84393 | 27.37491 | 16102 ft | 150 kts | 341° |
| 2026-04-23 14:31 | -28.83378 | 27.37209 | 16299 ft | 150 kts | 341° |
| 2026-04-23 14:32 | -28.82364 | 27.36927 | 16510 ft | 150 kts | 341° |
| 2026-04-23 14:32 | -28.81349 | 27.36646 | 16718 ft | 150 kts | 341° |
| 2026-04-23 14:32 | -28.80331 | 27.36364 | 16922 ft | 151 kts | 341° |
| 2026-04-23 14:32 | -28.79324 | 27.36084 | 17122 ft | 151 kts | 341° |
| 2026-04-23 14:33 | -28.78303 | 27.35801 | 17339 ft | 151 kts | 341° |
| 2026-04-23 14:33 | -28.77279 | 27.35516 | 17552 ft | 152 kts | 340° |
| 2026-04-23 14:33 | -28.76254 | 27.35232 | 17762 ft | 152 kts | 340° |
| 2026-04-23 14:33 | -28.75225 | 27.34947 | 17963 ft | 152 kts | 340° |
| 2026-04-23 14:34 | -28.74196 | 27.34662 | 18177 ft | 153 kts | 340° |
| 2026-04-23 14:34 | -28.73164 | 27.34376 | 18385 ft | 153 kts | 341° |
| 2026-04-23 14:34 | -28.72129 | 27.34089 | 18591 ft | 153 kts | 340° |
| 2026-04-23 14:34 | -28.71092 | 27.33802 | 18773 ft | 153 kts | 340° |
| 2026-04-23 14:35 | -28.70069 | 27.33518 | 18941 ft | 154 kts | 340° |
| 2026-04-23 14:35 | -28.69029 | 27.33230 | 19115 ft | 154 kts | 340° |
| 2026-04-23 14:35 | -28.67987 | 27.32942 | 19290 ft | 154 kts | 340° |
| 2026-04-23 14:35 | -28.66927 | 27.32647 | 19356 ft | 162 kts | 340° |
| 2026-04-23 14:36 | -28.65796 | 27.32333 | 19368 ft | 172 kts | 341° |
| 2026-04-23 14:36 | -28.64603 | 27.32004 | 19367 ft | 181 kts | 341° |
| 2026-04-23 14:36 | -28.63356 | 27.31660 | 19366 ft | 188 kts | 341° |
| 2026-04-23 14:36 | -28.62067 | 27.31304 | 19367 ft | 193 kts | 341° |
| 2026-04-23 14:37 | -28.60745 | 27.30939 | 19369 ft | 197 kts | 342° |
| 2026-04-23 14:37 | -28.59402 | 27.30568 | 19365 ft | 200 kts | 342° |
| 2026-04-23 14:37 | -28.58059 | 27.30198 | 19367 ft | 203 kts | 342° |
| 2026-04-23 14:37 | -28.56681 | 27.29817 | 19368 ft | 204 kts | 342° |
| 2026-04-23 14:38 | -28.55297 | 27.29435 | 19366 ft | 205 kts | 342° |
| 2026-04-23 14:38 | -28.53903 | 27.29050 | 19366 ft | 206 kts | 342° |
| 2026-04-23 14:38 | -28.52504 | 27.28664 | 19366 ft | 207 kts | 342° |
| 2026-04-23 14:38 | -28.51101 | 27.28276 | 19365 ft | 208 kts | 342° |
| 2026-04-23 14:39 | -28.49693 | 27.27889 | 19366 ft | 208 kts | 342° |
| 2026-04-23 14:39 | -28.48286 | 27.27501 | 19369 ft | 208 kts | 342° |
| 2026-04-23 14:39 | -28.46875 | 27.27112 | 19365 ft | 209 kts | 342° |
| 2026-04-23 14:39 | -28.45484 | 27.26728 | 19365 ft | 209 kts | 342° |
| 2026-04-23 14:40 | -28.44071 | 27.26338 | 19366 ft | 209 kts | 342° |
| 2026-04-23 14:40 | -28.42655 | 27.25948 | 19364 ft | 209 kts | 342° |
| 2026-04-23 14:40 | -28.41241 | 27.25559 | 19365 ft | 209 kts | 342° |
| 2026-04-23 14:40 | -28.39824 | 27.25169 | 19364 ft | 209 kts | 342° |
| 2026-04-23 14:41 | -28.38409 | 27.24779 | 19365 ft | 210 kts | 342° |
| 2026-04-23 14:41 | -28.36990 | 27.24388 | 19363 ft | 210 kts | 342° |
| 2026-04-23 14:41 | -28.35568 | 27.23997 | 19368 ft | 210 kts | 342° |
| 2026-04-23 14:41 | -28.34145 | 27.23606 | 19369 ft | 211 kts | 342° |
| 2026-04-23 14:42 | -28.32740 | 27.23219 | 19367 ft | 211 kts | 342° |
| 2026-04-23 14:42 | -28.31316 | 27.22829 | 19367 ft | 210 kts | 342° |
| 2026-04-23 14:42 | -28.29895 | 27.22438 | 19368 ft | 210 kts | 342° |
| 2026-04-23 14:42 | -28.28475 | 27.22047 | 19370 ft | 210 kts | 342° |
| 2026-04-23 14:43 | -28.27056 | 27.21657 | 19367 ft | 210 kts | 342° |
| 2026-04-23 14:43 | -28.25637 | 27.21268 | 19371 ft | 210 kts | 342° |
| 2026-04-23 14:43 | -28.24696 | 27.21009 | 19368 ft | 210 kts | 342° |
| 2026-04-23 14:43 | -28.22794 | 27.20487 | 19371 ft | 210 kts | 342° |
| 2026-04-23 14:44 | -28.21390 | 27.20102 | 19369 ft | 210 kts | 342° |
| 2026-04-23 14:44 | -28.19970 | 27.19712 | 19372 ft | 210 kts | 342° |
| 2026-04-23 14:44 | -28.18548 | 27.19323 | 19367 ft | 210 kts | 342° |
| 2026-04-23 14:44 | -28.17127 | 27.18933 | 19369 ft | 210 kts | 342° |
| 2026-04-23 14:45 | -28.16188 | 27.18676 | 19370 ft | 210 kts | 342° |
| 2026-04-23 14:45 | -28.14770 | 27.18287 | 19371 ft | 210 kts | 342° |
| 2026-04-23 14:45 | -28.13351 | 27.17898 | 19371 ft | 210 kts | 342° |
| 2026-04-23 14:45 | -28.11934 | 27.17510 | 19372 ft | 209 kts | 342° |
| 2026-04-23 14:46 | -28.10519 | 27.17123 | 19369 ft | 209 kts | 342° |
| 2026-04-23 14:46 | -28.09102 | 27.16735 | 19372 ft | 209 kts | 342° |
| 2026-04-23 14:46 | -28.07229 | 27.16222 | 19370 ft | 209 kts | 342° |
| 2026-04-23 14:46 | -28.05813 | 27.15835 | 19372 ft | 209 kts | 342° |
| 2026-04-23 14:47 | -28.04398 | 27.15448 | 19370 ft | 209 kts | 342° |
| 2026-04-23 14:47 | -28.03441 | 27.15186 | 19370 ft | 209 kts | 342° |
| 2026-04-23 14:47 | -28.02045 | 27.14804 | 19369 ft | 209 kts | 342° |
| 2026-04-23 14:47 | -28.00628 | 27.14430 | 19370 ft | 210 kts | 346° |
| 2026-04-23 14:48 | -27.99155 | 27.14501 | 19377 ft | 216 kts | 5° |
| 2026-04-23 14:48 | -27.97682 | 27.14852 | 19370 ft | 216 kts | 7° |
| 2026-04-23 14:48 | -27.96208 | 27.15189 | 19373 ft | 216 kts | 5° |
| 2026-04-23 14:48 | -27.94728 | 27.15498 | 19372 ft | 216 kts | 5° |
| 2026-04-23 14:49 | -27.93249 | 27.15804 | 19371 ft | 216 kts | 5° |
| 2026-04-23 14:49 | -27.91769 | 27.16113 | 19376 ft | 216 kts | 5° |
| 2026-04-23 14:49 | -27.90310 | 27.16419 | 19376 ft | 216 kts | 5° |
| 2026-04-23 14:49 | -27.88832 | 27.16729 | 19376 ft | 216 kts | 5° |
| 2026-04-23 14:50 | -27.87355 | 27.17038 | 19374 ft | 216 kts | 5° |
| 2026-04-23 14:50 | -27.85880 | 27.17346 | 19376 ft | 216 kts | 5° |
| 2026-04-23 14:50 | -27.84405 | 27.17655 | 19373 ft | 216 kts | 5° |
| 2026-04-23 14:50 | -27.82931 | 27.17963 | 19372 ft | 215 kts | 5° |
| 2026-04-23 14:51 | -27.81456 | 27.18271 | 19371 ft | 215 kts | 5° |
| 2026-04-23 14:51 | -27.79982 | 27.18579 | 19373 ft | 215 kts | 5° |
| 2026-04-23 14:51 | -27.78508 | 27.18888 | 19371 ft | 215 kts | 5° |
| 2026-04-23 14:51 | -27.77036 | 27.19195 | 19371 ft | 215 kts | 5° |
| 2026-04-23 14:52 | -27.75586 | 27.19498 | 19371 ft | 215 kts | 5° |
| 2026-04-23 14:52 | -27.74116 | 27.19804 | 19371 ft | 215 kts | 5° |
| 2026-04-23 14:52 | -27.72643 | 27.20112 | 19373 ft | 215 kts | 5° |
| 2026-04-23 14:52 | -27.71170 | 27.20420 | 19371 ft | 215 kts | 5° |
| 2026-04-23 14:53 | -27.69697 | 27.20726 | 19372 ft | 216 kts | 5° |
| 2026-04-23 14:53 | -27.68221 | 27.21035 | 19369 ft | 216 kts | 5° |
| 2026-04-23 14:53 | -27.66746 | 27.21342 | 19371 ft | 215 kts | 5° |
| 2026-04-23 14:53 | -27.65273 | 27.21649 | 19371 ft | 215 kts | 5° |
| 2026-04-23 14:54 | -27.63798 | 27.21957 | 19367 ft | 215 kts | 5° |
| 2026-04-23 14:54 | -27.62345 | 27.22259 | 19368 ft | 215 kts | 5° |
| 2026-04-23 14:54 | -27.60873 | 27.22566 | 19368 ft | 215 kts | 5° |
| 2026-04-23 14:54 | -27.59401 | 27.22872 | 19370 ft | 215 kts | 5° |
| 2026-04-23 14:55 | -27.57928 | 27.23179 | 19370 ft | 215 kts | 5° |
| 2026-04-23 14:55 | -27.56453 | 27.23486 | 19368 ft | 215 kts | 5° |
| 2026-04-23 14:55 | -27.54981 | 27.23792 | 19367 ft | 215 kts | 5° |
| 2026-04-23 14:55 | -27.53507 | 27.24099 | 19369 ft | 215 kts | 5° |
| 2026-04-23 14:56 | -27.52036 | 27.24405 | 19368 ft | 215 kts | 5° |
| 2026-04-23 14:56 | -27.50563 | 27.24711 | 19370 ft | 215 kts | 5° |
| 2026-04-23 14:56 | -27.49091 | 27.25017 | 19368 ft | 215 kts | 5° |
| 2026-04-23 14:56 | -27.47640 | 27.25318 | 19368 ft | 215 kts | 5° |
| 2026-04-23 14:57 | -27.46170 | 27.25623 | 19367 ft | 215 kts | 5° |
| 2026-04-23 14:57 | -27.44701 | 27.25928 | 19363 ft | 215 kts | 5° |
| 2026-04-23 14:57 | -27.43232 | 27.26233 | 19364 ft | 215 kts | 5° |
| 2026-04-23 14:57 | -27.41764 | 27.26538 | 19365 ft | 215 kts | 5° |
| 2026-04-23 14:58 | -27.40293 | 27.26843 | 19362 ft | 215 kts | 5° |
| 2026-04-23 14:58 | -27.38824 | 27.27148 | 19357 ft | 215 kts | 5° |
| 2026-04-23 14:58 | -27.37355 | 27.27453 | 19362 ft | 215 kts | 5° |
| 2026-04-23 14:58 | -27.35906 | 27.27753 | 19361 ft | 215 kts | 5° |
| 2026-04-23 14:59 | -27.34437 | 27.28057 | 19366 ft | 215 kts | 5° |
| 2026-04-23 14:59 | -27.32969 | 27.28362 | 19365 ft | 215 kts | 5° |
| 2026-04-23 14:59 | -27.31500 | 27.28666 | 19367 ft | 215 kts | 5° |
| 2026-04-23 14:59 | -27.30031 | 27.28970 | 19365 ft | 215 kts | 5° |
| 2026-04-23 15:00 | -27.28562 | 27.29274 | 19362 ft | 215 kts | 5° |
| 2026-04-23 15:00 | -27.27094 | 27.29578 | 19354 ft | 214 kts | 5° |
| 2026-04-23 15:00 | -27.25630 | 27.29881 | 19354 ft | 214 kts | 5° |
| 2026-04-23 15:00 | -27.24185 | 27.30180 | 19354 ft | 214 kts | 5° |
| 2026-04-23 15:01 | -27.22720 | 27.30483 | 19353 ft | 214 kts | 5° |
| 2026-04-23 15:01 | -27.21257 | 27.30791 | 19360 ft | 214 kts | 7° |
| 2026-04-23 15:01 | -27.19888 | 27.31504 | 19359 ft | 223 kts | 31° |
| 2026-04-23 15:01 | -27.18704 | 27.32649 | 19366 ft | 226 kts | 37° |
| 2026-04-23 15:02 | -27.17537 | 27.33828 | 19363 ft | 225 kts | 35° |
| 2026-04-23 15:02 | -27.16344 | 27.34964 | 19365 ft | 225 kts | 34° |
| 2026-04-23 15:02 | -27.15145 | 27.36091 | 19364 ft | 225 kts | 34° |
| 2026-04-23 15:02 | -27.13947 | 27.37224 | 19369 ft | 225 kts | 34° |
| 2026-04-23 15:03 | -27.12765 | 27.38346 | 19367 ft | 226 kts | 34° |
| 2026-04-23 15:03 | -27.11565 | 27.39484 | 19366 ft | 226 kts | 34° |
| 2026-04-23 15:03 | -27.10364 | 27.40622 | 19365 ft | 226 kts | 34° |
| 2026-04-23 15:03 | -27.09163 | 27.41758 | 19367 ft | 226 kts | 34° |
| 2026-04-23 15:04 | -27.07964 | 27.42894 | 19363 ft | 226 kts | 34° |
| 2026-04-23 15:04 | -27.06762 | 27.44030 | 19364 ft | 226 kts | 34° |
| 2026-04-23 15:04 | -27.05563 | 27.45166 | 19366 ft | 226 kts | 34° |
| 2026-04-23 15:04 | -27.04362 | 27.46301 | 19367 ft | 226 kts | 34° |
| 2026-04-23 15:05 | -27.03179 | 27.47420 | 19367 ft | 226 kts | 34° |
| 2026-04-23 15:05 | -27.01977 | 27.48556 | 19365 ft | 226 kts | 34° |
| 2026-04-23 15:05 | -27.00773 | 27.49693 | 19372 ft | 227 kts | 34° |
| 2026-04-23 15:05 | -26.99567 | 27.50833 | 19367 ft | 227 kts | 34° |
| 2026-04-23 15:06 | -26.98362 | 27.51971 | 19369 ft | 227 kts | 34° |
| 2026-04-23 15:06 | -26.97155 | 27.53111 | 19366 ft | 227 kts | 34° |
| 2026-04-23 15:06 | -26.95947 | 27.54250 | 19368 ft | 227 kts | 34° |
| 2026-04-23 15:06 | -26.94739 | 27.55391 | 19371 ft | 227 kts | 34° |
| 2026-04-23 15:07 | -26.93531 | 27.56531 | 19369 ft | 227 kts | 34° |
| 2026-04-23 15:07 | -26.92322 | 27.57670 | 19371 ft | 227 kts | 34° |
| 2026-04-23 15:07 | -26.91129 | 27.58795 | 19349 ft | 229 kts | 34° |
| 2026-04-23 15:07 | -26.89880 | 27.59968 | 19103 ft | 240 kts | 34° |
| 2026-04-23 15:08 | -26.88582 | 27.61191 | 18862 ft | 247 kts | 35° |
| 2026-04-23 15:08 | -26.87258 | 27.62442 | 18611 ft | 251 kts | 35° |
| 2026-04-23 15:08 | -26.85917 | 27.63706 | 18331 ft | 253 kts | 35° |
| 2026-04-23 15:09 | -26.83210 | 27.66255 | 17778 ft | 255 kts | 36° |
| 2026-04-23 15:09 | -26.81826 | 27.67488 | 17495 ft | 253 kts | 31° |
| 2026-04-23 15:09 | -26.80418 | 27.68639 | 17202 ft | 254 kts | 33° |
| 2026-04-23 15:09 | -26.79005 | 27.69838 | 16882 ft | 255 kts | 33° |
| 2026-04-23 15:10 | -26.77584 | 27.71029 | 16561 ft | 255 kts | 33° |
| 2026-04-23 15:10 | -26.76159 | 27.72209 | 16253 ft | 255 kts | 33° |
| 2026-04-23 15:10 | -26.74738 | 27.73388 | 15943 ft | 254 kts | 33° |
| 2026-04-23 15:10 | -26.73322 | 27.74564 | 15638 ft | 253 kts | 33° |
| 2026-04-23 15:11 | -26.71911 | 27.75736 | 15336 ft | 252 kts | 33° |
| 2026-04-23 15:11 | -26.70507 | 27.76901 | 15033 ft | 251 kts | 33° |
| 2026-04-23 15:11 | -26.69122 | 27.78050 | 14735 ft | 245 kts | 34° |
| 2026-04-23 15:11 | -26.67766 | 27.79176 | 14433 ft | 241 kts | 33° |
| 2026-04-23 15:12 | -26.66448 | 27.80269 | 14126 ft | 238 kts | 33° |
| 2026-04-23 15:12 | -26.65121 | 27.81357 | 13793 ft | 235 kts | 33° |
| 2026-04-23 15:12 | -26.63805 | 27.82423 | 13459 ft | 233 kts | 33° |
| 2026-04-23 15:12 | -26.62499 | 27.83475 | 13129 ft | 231 kts | 33° |
| 2026-04-23 15:13 | -26.61197 | 27.84516 | 12806 ft | 229 kts | 33° |
| 2026-04-23 15:13 | -26.59910 | 27.85556 | 12483 ft | 228 kts | 34° |
| 2026-04-23 15:13 | -26.58634 | 27.86600 | 12166 ft | 227 kts | 34° |
| 2026-04-23 15:13 | -26.57362 | 27.87635 | 11846 ft | 226 kts | 34° |
| 2026-04-23 15:14 | -26.56088 | 27.88657 | 11535 ft | 225 kts | 34° |
| 2026-04-23 15:14 | -26.54832 | 27.89653 | 11231 ft | 224 kts | 34° |
| 2026-04-23 15:14 | -26.53558 | 27.90656 | 10927 ft | 224 kts | 34° |
| 2026-04-23 15:14 | -26.52445 | 27.91520 | 10658 ft | 223 kts | 33° |
| 2026-04-23 15:15 | -26.51174 | 27.92501 | 10354 ft | 222 kts | 34° |
| 2026-04-23 15:15 | -26.49903 | 27.93469 | 10020 ft | 220 kts | 34° |
| 2026-04-23 15:15 | -26.48635 | 27.94414 | 9687 ft | 218 kts | 34° |
| 2026-04-23 15:15 | -26.47369 | 27.95341 | 9360 ft | 216 kts | 34° |
| 2026-04-23 15:16 | -26.46107 | 27.96246 | 9031 ft | 215 kts | 34° |
| 2026-04-23 15:16 | -26.44849 | 27.97131 | 8706 ft | 214 kts | 34° |
| 2026-04-23 15:16 | -26.43592 | 27.98008 | 8412 ft | 211 kts | 34° |
| 2026-04-23 15:16 | -26.42344 | 27.98864 | 8172 ft | 210 kts | 34° |
| 2026-04-23 15:17 | -26.41120 | 27.99691 | 8015 ft | 203 kts | 33° |
| 2026-04-23 15:17 | -26.39937 | 28.00488 | 8006 ft | 196 kts | 33° |
| 2026-04-23 15:17 | -26.38751 | 28.01261 | 7765 ft | 199 kts | 32° |
| 2026-04-23 15:17 | -26.37535 | 28.01988 | 7583 ft | 196 kts | 30° |
| 2026-04-23 15:18 | -26.36310 | 28.02628 | 7392 ft | 194 kts | 26° |
| 2026-04-23 15:18 | -26.35044 | 28.03196 | 7123 ft | 196 kts | 25° |
| 2026-04-23 15:18 | -26.33782 | 28.03704 | 6956 ft | 187 kts | 23° |
| 2026-04-23 15:18 | -26.32571 | 28.04115 | 6866 ft | 178 kts | 20° |
| 2026-04-23 15:19 | -26.31388 | 28.04455 | 6722 ft | 175 kts | 18° |
| 2026-04-23 15:19 | -26.30258 | 28.04777 | 6539 ft | 166 kts | 19° |
| 2026-04-23 15:19 | -26.29165 | 28.05068 | 6335 ft | 155 kts | 18° |
| 2026-04-23 15:19 | -26.28237 | 28.05458 | 6331 ft | 130 kts | 41° |
| 2026-04-23 15:20 | -26.27596 | 28.06088 | 6330 ft | 121 kts | 46° |
| 2026-04-23 15:20 | -26.26959 | 28.06714 | 6382 ft | 124 kts | 46° |
| 2026-04-23 15:20 | -26.26298 | 28.07359 | 6355 ft | 130 kts | 49° |
| 2026-04-23 15:20 | -26.25680 | 28.08088 | 6297 ft | 126 kts | 53° |
| 2026-04-23 15:21 | -26.25180 | 28.08783 | 6292 ft | 108 kts | 59° |
| 2026-04-23 15:21 | -26.24764 | 28.09446 | 6224 ft | 103 kts | 61° |
| 2026-04-23 15:21 | -26.24410 | 28.10123 | 6101 ft | 103 kts | 72° |
| 2026-04-23 15:21 | -26.24305 | 28.10900 | 5976 ft | 101 kts | 88° |
| 2026-04-23 15:22 | -26.24293 | 28.11678 | 5902 ft | 100 kts | 91° |
| 2026-04-23 15:22 | -26.24288 | 28.12453 | 5756 ft | 101 kts | 90° |
| 2026-04-23 15:22 | -26.24278 | 28.13227 | 5650 ft | 101 kts | 88° |
| 2026-04-23 15:22 | -26.24268 | 28.14017 | 5511 ft | 101 kts | 86° |
| 2026-04-23 15:23 | -26.24258 | 28.14689 | 5486 ft | 71 kts | 89° |
| 2026-04-23 15:23 | -26.24254 | 28.15076 | 5488 ft | 24 kts | 89° |
| 2026-04-23 15:23 | -26.24252 | 28.15195 | 5489 ft | 9 kts | 83° |
| 2026-04-23 15:23 | -26.24212 | 28.15200 | 5489 ft | 10 kts | 336° |
| 2026-04-23 15:24 | -26.24151 | 28.15165 | 5489 ft | 9 kts | 327° |
| 2026-04-23 15:24 | -26.24103 | 28.15140 | 5488 ft | 7 kts | 338° |
| 2026-04-23 15:24 | -26.24077 | 28.15161 | 5488 ft | 7 kts | 92° |
| 2026-04-23 15:24 | -26.24069 | 28.15243 | 5488 ft | 11 kts | 81° |
| 2026-04-23 15:25 | -26.24060 | 28.15318 | 5487 ft | 8 kts | 82° |
| 2026-04-23 15:25 | -26.24053 | 28.15376 | 5488 ft | 10 kts | 82° |
| 2026-04-23 15:25 | -26.24037 | 28.15497 | 5488 ft | 18 kts | 82° |
| 2026-04-23 15:25 | -26.24043 | 28.15539 | 5487 ft | 0 kts | 87° |
| 2026-04-23 15:26 | -26.24042 | 28.15544 | 5487 ft | 0 kts | 71° |